Time;durP1;ratioP1;P1;durP2;ratioP2;P2;SDS_P1;SDS_P2;PMS_P1;PMS_P2;Temp;Humidity;BMP_temperature;BMP_pressure;BME280_temperature;BME280_humidity;BME280_pressure;Samples;Min_cycle;Max_cycle;Signal;HPM_P1;HPM_P2
2022/01/19 00:00:52;;;;;;;7.45;5.22;;;17.30;47.70;;;;;;5118587;28;20410;-57
2022/01/19 00:03:18;;;;;;;9.80;5.22;;;17.30;47.70;;;;;;5117591;28;20023;-57
2022/01/19 00:05:44;;;;;;;6.85;5.30;;;17.30;47.70;;;;;;5117365;28;20065;-57
2022/01/19 00:08:16;;;;;;;7.88;4.95;;;17.30;47.70;;;;;;5119702;28;20040;-57
2022/01/19 00:10:43;;;;;;;6.32;4.82;;;17.30;47.80;;;;;;5120659;28;20065;-57
2022/01/19 00:13:15;;;;;;;5.70;4.75;;;17.20;47.70;;;;;;5120706;28;20016;-56
2022/01/19 00:15:41;;;;;;;7.32;5.10;;;17.30;48.30;;;;;;5118953;28;20468;-57
2022/01/19 00:18:07;;;;;;;7.68;5.10;;;17.20;47.80;;;;;;5119941;28;20429;-57
2022/01/19 00:20:33;;;;;;;5.20;4.65;;;17.20;47.80;;;;;;5119418;28;20019;-57
2022/01/19 00:22:59;;;;;;;5.63;4.63;;;17.20;47.80;;;;;;5118985;27;20016;-57
2022/01/19 00:25:24;;;;;;;7.15;5.15;;;17.20;47.80;;;;;;5118435;28;20027;-56
2022/01/19 00:27:50;;;;;;;7.03;5.03;;;17.20;47.80;;;;;;5117859;28;20547;-57
2022/01/19 00:30:16;;;;;;;5.78;4.88;;;17.20;47.80;;;;;;5116815;28;20433;-56
2022/01/19 00:32:42;;;;;;;6.72;5.07;;;17.20;47.80;;;;;;5116494;28;20539;-58
2022/01/19 00:35:09;;;;;;;6.57;4.90;;;17.20;47.90;;;;;;5117938;28;20016;-58
2022/01/19 00:37:35;;;;;;;6.30;4.72;;;17.10;47.80;;;;;;5117454;28;20465;-59
2022/01/19 00:40:00;;;;;;;7.05;5.05;;;17.20;47.90;;;;;;5099024;28;20023;-58
2022/01/19 00:42:26;;;;;;;6.22;4.80;;;17.20;47.90;;;;;;5117652;28;20015;-58
2022/01/19 00:44:52;;;;;;;7.53;5.50;;;17.20;47.90;;;;;;5118534;28;20019;-59
2022/01/19 00:47:19;;;;;;;5.93;5.07;;;17.10;47.90;;;;;;5116797;28;20474;-58
2022/01/19 00:49:45;;;;;;;5.75;4.80;;;17.10;47.90;;;;;;5118089;28;20016;-58
2022/01/19 00:52:12;;;;;;;7.60;4.57;;;17.10;47.90;;;;;;5118208;28;20020;-57
2022/01/19 00:54:38;;;;;;;6.15;5.25;;;17.10;47.90;;;;;;5118029;28;20016;-57
2022/01/19 00:57:05;;;;;;;5.88;4.70;;;17.10;48.00;;;;;;5118022;28;20023;-58
2022/01/19 00:59:31;;;;;;;11.52;5.45;;;17.10;48.00;;;;;;5116454;28;20023;-58
2022/01/19 01:01:57;;;;;;;8.27;5.43;;;17.10;48.00;;;;;;5116625;28;20061;-58
2022/01/19 01:04:24;;;;;;;6.93;5.32;;;17.10;48.00;;;;;;5117580;27;20020;-57
2022/01/19 01:06:49;;;;;;;5.75;4.45;;;17.00;48.50;;;;;;5117446;28;20023;-59
2022/01/19 01:09:15;;;;;;;7.88;5.30;;;17.10;48.00;;;;;;5117922;28;20040;-58
2022/01/19 01:11:58;;;;;;;7.70;5.70;;;17.10;48.00;;;;;;5117769;28;20481;-57
2022/01/19 01:19:58;;;;;;;5.50;4.90;;;17.00;48.00;;;;;;5089816;28;20031;-57
2022/01/19 01:22:23;;;;;;;6.32;5.07;;;17.00;48.00;;;;;;5119386;28;20491;-58
2022/01/19 01:24:49;;;;;;;7.63;5.57;;;17.00;48.10;;;;;;5117796;28;20029;-57
2022/01/19 01:27:15;;;;;;;6.05;4.78;;;17.00;48.10;;;;;;5115973;28;20026;-58
2022/01/19 01:29:41;;;;;;;6.38;4.82;;;17.00;48.10;;;;;;5117973;28;20073;-58
2022/01/19 01:32:08;;;;;;;11.10;5.72;;;17.00;48.10;;;;;;5116127;28;20370;-56
2022/01/19 01:34:34;;;;;;;8.18;5.20;;;17.00;48.10;;;;;;5115645;28;20030;-58
2022/01/19 01:36:59;;;;;;;6.55;4.68;;;17.00;48.10;;;;;;5116799;28;20026;-56
2022/01/19 01:39:26;;;;;;;7.38;5.45;;;17.00;48.10;;;;;;5116720;28;20012;-57
2022/01/19 01:41:52;;;;;;;7.07;4.75;;;17.00;48.10;;;;;;5117868;28;20061;-57
2022/01/19 01:44:18;;;;;;;7.82;5.40;;;17.00;48.20;;;;;;5118387;28;20355;-56
2022/01/19 01:46:50;;;;;;;6.68;5.22;;;17.00;48.10;;;;;;5117018;28;20032;-56
2022/01/19 01:49:24;;;;;;;7.20;5.10;;;17.00;48.10;;;;;;5117270;28;20030;-56
2022/01/19 01:54:35;;;;;;;6.38;5.10;;;16.90;48.10;;;;;;5116247;28;20027;-57
2022/01/19 01:57:01;;;;;;;7.38;5.78;;;17.00;48.20;;;;;;5116755;28;20031;-56
2022/01/19 01:59:27;;;;;;;6.57;5.18;;;16.90;48.20;;;;;;5116595;28;20049;-56
2022/01/19 02:01:53;;;;;;;7.10;5.30;;;16.90;48.20;;;;;;5117481;28;20542;-57
2022/01/19 02:04:23;;;;;;;7.15;5.30;;;16.90;48.20;;;;;;5117216;28;20040;-56
2022/01/19 02:09:46;;;;;;;6.85;4.88;;;16.90;48.20;;;;;;5062969;28;20041;-56
2022/01/19 02:25:56;;;;;;;6.43;4.85;;;16.80;48.30;;;;;;5116588;28;20054;-53
2022/01/19 02:41:49;;;;;;;9.00;5.68;;;16.80;48.30;;;;;;5121675;28;20042;-56
2022/01/19 02:44:29;;;;;;;8.18;5.05;;;16.80;48.30;;;;;;5121515;28;20458;-57
2022/01/19 02:49:39;;;;;;;6.40;5.10;;;16.80;48.40;;;;;;5121861;28;20151;-62
2022/01/19 02:52:05;;;;;;;6.50;5.18;;;16.80;48.30;;;;;;5120942;28;20031;-59
2022/01/19 02:54:33;;;;;;;5.75;4.97;;;16.80;48.30;;;;;;5120988;28;20011;-58
2022/01/19 02:57:01;;;;;;;6.80;5.10;;;16.70;48.30;;;;;;5120264;28;20019;-58
2022/01/19 03:10:11;;;;;;;7.28;5.63;;;16.70;48.30;;;;;;5120924;28;20074;-59
2022/01/19 03:12:37;;;;;;;7.18;5.30;;;16.70;48.30;;;;;;5120217;28;20011;-57
2022/01/19 03:15:04;;;;;;;7.43;5.25;;;16.70;48.30;;;;;;5102399;28;20023;-57
2022/01/19 03:17:30;;;;;;;6.32;5.47;;;16.70;48.30;;;;;;5119495;28;20470;-57
2022/01/19 03:19:55;;;;;;;7.63;4.88;;;16.70;48.10;;;;;;5120039;28;20032;-57
2022/01/19 03:22:28;;;;;;;8.20;5.20;;;16.90;48.00;;;;;;5120943;28;20094;-58
2022/01/19 03:24:53;;;;;;;6.78;4.80;;;16.90;47.70;;;;;;5120212;28;20474;-57
2022/01/19 03:27:20;;;;;;;6.13;4.85;;;17.00;48.20;;;;;;5119188;28;20161;-57
2022/01/19 03:29:48;;;;;;;7.75;5.30;;;17.00;47.60;;;;;;5119067;28;20450;-57
2022/01/19 03:32:14;;;;;;;7.13;4.90;;;17.10;47.50;;;;;;5119025;28;20135;-57
2022/01/19 03:34:40;;;;;;;6.35;5.30;;;17.10;47.40;;;;;;5119553;28;20474;-57
2022/01/19 03:37:06;;;;;;;6.35;5.15;;;17.20;47.10;;;;;;5119304;28;20011;-57
2022/01/19 03:39:33;;;;;;;7.78;4.88;;;17.30;46.90;;;;;;5117343;28;20489;-58
2022/01/19 03:41:59;;;;;;;6.35;4.55;;;17.40;46.80;;;;;;5101835;28;20015;-57
2022/01/19 03:44:26;;;;;;;7.50;5.35;;;17.40;46.50;;;;;;5117847;28;20035;-58
2022/01/19 03:47:00;;;;;;;8.13;5.43;;;17.60;46.40;;;;;;5118956;28;20054;-57
2022/01/19 03:49:27;;;;;;;6.95;4.93;;;17.60;46.10;;;;;;5119946;28;20099;-58
2022/01/19 03:51:58;;;;;;;6.00;5.40;;;17.70;45.90;;;;;;5119900;28;20027;-56
2022/01/19 03:54:26;;;;;;;6.40;4.82;;;17.90;45.70;;;;;;5120045;28;20019;-56
2022/01/19 03:56:53;;;;;;;5.60;4.85;;;17.90;45.50;;;;;;5119214;28;20026;-57
2022/01/19 03:59:19;;;;;;;6.93;4.68;;;18.00;45.40;;;;;;5118631;28;20478;-55
2022/01/19 04:01:46;;;;;;;5.60;4.70;;;18.10;45.20;;;;;;5118863;28;20078;-56
2022/01/19 04:06:58;;;;;;;6.18;4.93;;;18.30;44.80;;;;;;5119081;28;20493;-56
2022/01/19 04:09:24;;;;;;;7.43;4.90;;;18.30;44.60;;;;;;5118674;28;20082;-57
2022/01/19 04:11:50;;;;;;;6.18;4.60;;;18.40;44.50;;;;;;5118693;28;20091;-57
2022/01/19 04:14:22;;;;;;;5.95;4.65;;;18.50;44.30;;;;;;5117952;28;20076;-55
2022/01/19 04:16:58;;;;;;;5.63;4.50;;;18.60;44.10;;;;;;5117282;28;20068;-55
2022/01/19 04:19:29;;;;;;;10.73;5.10;;;18.70;43.90;;;;;;5119108;28;20031;-57
2022/01/19 04:21:56;;;;;;;5.88;4.60;;;18.80;44.00;;;;;;5118112;28;20496;-57
2022/01/19 04:24:22;;;;;;;5.40;4.78;;;18.90;43.50;;;;;;5117919;28;20015;-57
2022/01/19 04:30:02;;;;;;;6.13;4.65;;;19.00;43.30;;;;;;5118767;28;20023;-57
2022/01/19 04:33:01;;;;;;;5.47;4.60;;;19.10;43.10;;;;;;5118838;28;20012;-57
2022/01/19 04:35:17;;;;;;;9.73;5.05;;;19.20;43.00;;;;;;5117515;28;20565;-57
2022/01/19 04:46:11;;;;;;;6.53;4.72;;;19.50;42.40;;;;;;5118000;28;20050;-57
2022/01/19 05:04:56;;;;;;;5.50;4.60;;;19.90;41.60;;;;;;5117198;28;20024;-55
2022/01/19 05:07:32;;;;;;;5.03;4.32;;;19.90;41.60;;;;;;5117771;28;20502;-56
2022/01/19 05:15:27;;;;;;;7.15;4.65;;;20.20;41.30;;;;;;5117367;28;20037;-56
2022/01/19 05:17:56;;;;;;;6.15;4.70;;;20.20;41.20;;;;;;5118264;28;20043;-57
2022/01/19 05:20:22;;;;;;;6.97;4.32;;;20.20;41.00;;;;;;5117921;28;20466;-57
2022/01/19 05:22:47;;;;;;;6.80;4.60;;;20.30;41.00;;;;;;5117540;28;20019;-56
2022/01/19 05:25:13;;;;;;;4.93;3.90;;;20.40;41.50;;;;;;5117179;28;20430;-57
2022/01/19 05:27:39;;;;;;;5.07;4.18;;;20.40;40.80;;;;;;5098131;28;20464;-56
2022/01/19 05:30:05;;;;;;;5.43;4.45;;;20.50;40.80;;;;;;5117076;28;20018;-57
2022/01/19 05:32:30;;;;;;;5.38;4.28;;;20.50;40.60;;;;;;5115852;28;20064;-56
2022/01/19 05:34:57;;;;;;;5.45;4.50;;;20.50;40.50;;;;;;5117407;28;20068;-56
2022/01/19 05:37:22;;;;;;;5.63;3.88;;;20.60;40.50;;;;;;5115449;28;20420;-55
2022/01/19 05:39:48;;;;;;;5.25;4.15;;;20.70;40.40;;;;;;5098681;28;20058;-56
2022/01/19 05:42:15;;;;;;;6.15;4.38;;;20.70;40.30;;;;;;5116683;28;20023;-55
2022/01/19 05:44:45;;;;;;;6.35;4.55;;;20.80;40.30;;;;;;5116057;28;20055;-56
2022/01/19 05:47:11;;;;;;;4.72;4.10;;;20.80;40.20;;;;;;5116506;28;20059;-55
2022/01/19 05:49:38;;;;;;;7.97;4.25;;;20.80;40.20;;;;;;5116227;28;20016;-55
2022/01/19 05:52:05;;;;;;;4.90;3.90;;;20.90;40.10;;;;;;5116329;28;20026;-55
2022/01/19 05:54:31;;;;;;;5.60;4.32;;;20.90;40.00;;;;;;5116222;28;20019;-55
2022/01/19 05:56:58;;;;;;;4.93;4.28;;;21.00;40.00;;;;;;5116068;28;20020;-55
2022/01/19 05:59:24;;;;;;;4.05;3.63;;;21.10;39.90;;;;;;5116107;28;20028;-56
2022/01/19 06:01:51;;;;;;;5.32;3.80;;;21.10;39.80;;;;;;5117447;28;20065;-55
2022/01/19 06:04:17;;;;;;;5.82;4.07;;;21.10;39.80;;;;;;5120334;28;20141;-56
2022/01/19 06:06:43;;;;;;;4.68;4.18;;;21.20;39.80;;;;;;5119155;28;20024;-56
2022/01/19 06:09:21;;;;;;;4.63;3.53;;;21.20;39.70;;;;;;5120354;28;20486;-53
2022/01/19 06:11:47;;;;;;;5.60;4.15;;;21.30;39.60;;;;;;5120307;28;20047;-56
2022/01/19 06:14:13;;;;;;;5.00;3.78;;;21.30;39.60;;;;;;5120103;28;20139;-56
2022/01/19 06:16:41;;;;;;;4.45;3.72;;;21.40;39.60;;;;;;5120502;28;20023;-56
2022/01/19 06:19:06;;;;;;;4.15;3.72;;;21.40;39.50;;;;;;5120333;28;20172;-56
2022/01/19 06:21:32;;;;;;;5.00;3.90;;;21.40;39.50;;;;;;5119139;28;20028;-55
2022/01/19 06:23:59;;;;;;;4.47;3.95;;;21.50;39.40;;;;;;5120118;28;20015;-53
2022/01/19 06:26:24;;;;;;;4.78;3.90;;;21.50;39.30;;;;;;5120057;28;20024;-55
2022/01/19 06:28:51;;;;;;;5.05;3.88;;;21.60;39.30;;;;;;5119327;28;20024;-55
2022/01/19 06:31:18;;;;;;;4.13;3.72;;;21.60;39.20;;;;;;5120893;28;20016;-54
2022/01/19 06:33:43;;;;;;;4.70;3.88;;;21.60;39.20;;;;;;5120516;28;20545;-55
2022/01/19 06:36:09;;;;;;;4.35;3.45;;;21.70;39.20;;;;;;5121151;28;20014;-57
2022/01/19 06:38:36;;;;;;;4.22;3.67;;;21.70;39.20;;;;;;5120295;28;20011;-53
2022/01/19 06:41:02;;;;;;;4.30;3.75;;;21.80;39.10;;;;;;5120954;28;20029;-54
2022/01/19 06:43:28;;;;;;;7.63;3.92;;;21.70;39.00;;;;;;5120862;28;20466;-53
2022/01/19 06:45:56;;;;;;;4.40;3.90;;;21.80;39.00;;;;;;5102168;28;20008;-55
2022/01/19 06:48:22;;;;;;;5.03;3.83;;;21.80;39.00;;;;;;5120184;28;20031;-55
2022/01/19 06:50:47;;;;;;;4.15;3.63;;;21.90;39.00;;;;;;5119648;28;20023;-56
2022/01/19 06:53:14;;;;;;;6.78;4.22;;;21.80;38.40;;;;;;5118349;28;20409;-57
2022/01/19 06:55:40;;;;;;;3.95;3.55;;;21.80;37.90;;;;;;5120160;28;20451;-56
2022/01/19 06:58:06;;;;;;;8.05;3.92;;;21.70;37.70;;;;;;5120897;28;20020;-56
2022/01/19 07:00:32;;;;;;;4.35;3.60;;;21.80;37.70;;;;;;5119336;28;20374;-57
2022/01/19 07:02:58;;;;;;;6.47;3.85;;;21.90;37.70;;;;;;5117285;28;20047;-55
2022/01/19 07:05:23;;;;;;;4.53;3.42;;;21.90;37.60;;;;;;5118246;28;20095;-57
2022/01/19 07:07:52;;;;;;;4.82;3.53;;;22.00;37.60;;;;;;5115507;28;20040;-56
2022/01/19 07:10:17;;;;;;;3.90;3.30;;;22.00;37.60;;;;;;5115363;28;20024;-54
2022/01/19 07:12:43;;;;;;;6.30;3.97;;;22.00;37.60;;;;;;5114911;28;20126;-57
2022/01/19 07:15:09;;;;;;;4.43;3.80;;;22.00;37.60;;;;;;5116231;28;20019;-57
2022/01/19 07:17:35;;;;;;;4.05;3.30;;;22.10;37.60;;;;;;5117292;28;20050;-56
2022/01/19 07:20:04;;;;;;;4.22;3.05;;;22.10;37.60;;;;;;5115545;28;20011;-57
2022/01/19 07:22:29;;;;;;;11.00;3.92;;;22.10;37.60;;;;;;5113491;28;20016;-59
2022/01/19 07:24:58;;;;;;;26.67;4.15;;;22.10;37.90;;;;;;5095343;28;20024;-59
2022/01/19 07:27:24;;;;;;;14.10;4.13;;;22.10;37.50;;;;;;5113067;28;20034;-60
2022/01/19 07:29:52;;;;;;;9.40;3.75;;;22.00;37.90;;;;;;5114828;28;20218;-58
2022/01/19 07:32:20;;;;;;;14.80;3.97;;;22.10;36.90;;;;;;5113399;28;20012;-58
2022/01/19 07:34:48;;;;;;;12.95;3.72;;;22.20;36.40;;;;;;5114390;28;20153;-58
2022/01/19 07:37:16;;;;;;;13.60;4.05;;;22.20;36.10;;;;;;5114073;28;20020;-56
2022/01/19 07:39:47;;;;;;;7.35;3.70;;;22.30;35.80;;;;;;5112536;28;20015;-56
2022/01/19 07:42:13;;;;;;;10.05;3.67;;;22.40;35.30;;;;;;5113619;27;20103;-56
2022/01/19 07:44:39;;;;;;;7.22;3.30;;;22.40;35.30;;;;;;5112657;28;20032;-54
2022/01/19 07:47:06;;;;;;;6.15;3.40;;;22.40;34.80;;;;;;5114027;28;20046;-55
2022/01/19 07:49:31;;;;;;;9.90;3.25;;;22.40;35.00;;;;;;5113666;28;20027;-52
2022/01/19 07:51:58;;;;;;;10.88;3.55;;;22.50;34.80;;;;;;5113316;28;20023;-58
2022/01/19 07:54:24;;;;;;;8.32;3.20;;;22.50;34.80;;;;;;5112264;28;20423;-58
2022/01/19 07:56:50;;;;;;;5.47;3.40;;;22.50;34.60;;;;;;5113879;28;20033;-57
2022/01/19 07:59:16;;;;;;;6.82;3.30;;;22.60;34.50;;;;;;5113461;28;20028;-56
2022/01/19 08:01:42;;;;;;;7.13;3.55;;;22.60;34.40;;;;;;5113321;28;20083;-57
2022/01/19 08:04:10;;;;;;;8.77;3.83;;;22.60;34.70;;;;;;5113417;28;20019;-54
2022/01/19 08:06:36;;;;;;;8.20;3.80;;;22.60;33.90;;;;;;5113278;28;20039;-58
2022/01/19 08:09:03;;;;;;;5.13;3.35;;;22.70;33.90;;;;;;5113032;28;20047;-56
2022/01/19 08:11:29;;;;;;;11.35;3.95;;;22.60;34.40;;;;;;5113118;28;20034;-52
2022/01/19 08:13:55;;;;;;;10.30;3.92;;;22.70;33.80;;;;;;5111856;28;20016;-55
2022/01/19 08:16:21;;;;;;;13.52;4.30;;;22.60;34.30;;;;;;5113043;28;20312;-56
2022/01/19 08:18:50;;;;;;;10.60;6.70;;;22.40;34.60;;;;;;5113713;28;20015;-56
2022/01/19 08:21:18;;;;;;;12.30;7.82;;;20.20;34.40;;;;;;5114143;28;20016;-55
2022/01/19 08:23:44;;;;;;;11.68;7.63;;;18.20;37.30;;;;;;5112814;28;20088;-54
2022/01/19 08:26:17;;;;;;;13.90;8.30;;;16.80;40.00;;;;;;5115108;28;20477;-57
2022/01/19 08:28:42;;;;;;;12.13;8.40;;;15.80;41.90;;;;;;5113861;28;20027;-50
2022/01/19 08:31:09;;;;;;;10.73;7.80;;;15.30;43.20;;;;;;5112945;28;20016;-53
2022/01/19 08:33:36;;;;;;;13.90;9.43;;;15.00;43.50;;;;;;5095678;28;20365;-52
2022/01/19 08:36:05;;;;;;;11.60;8.90;;;14.70;44.40;;;;;;5114165;28;20020;-52
2022/01/19 08:38:33;;;;;;;14.52;8.73;;;14.40;45.20;;;;;;5096141;28;20462;-48
2022/01/19 08:41:01;;;;;;;12.55;8.82;;;14.10;45.90;;;;;;5113828;28;20015;-54
2022/01/19 08:43:31;;;;;;;14.27;9.60;;;14.00;46.30;;;;;;5114174;28;20102;-50
2022/01/19 08:45:57;;;;;;;16.30;9.85;;;12.50;48.80;;;;;;5113967;28;20024;-56
2022/01/19 08:48:23;;;;;;;14.68;9.32;;;11.70;52.10;;;;;;5113419;28;20019;-53
2022/01/19 08:50:49;;;;;;;12.68;9.45;;;12.20;51.50;;;;;;5113553;28;20028;-54
2022/01/19 08:53:17;;;;;;;12.68;9.73;;;12.50;50.70;;;;;;5095865;28;20158;-56
2022/01/19 08:55:46;;;;;;;12.25;8.38;;;12.30;51.10;;;;;;5113281;28;20079;-53
2022/01/19 08:58:13;;;;;;;14.02;9.43;;;12.50;51.20;;;;;;5113197;28;20051;-55
2022/01/19 09:00:41;;;;;;;16.52;9.20;;;12.60;50.70;;;;;;5111433;28;20019;-54
2022/01/19 09:03:07;;;;;;;19.13;9.00;;;12.80;50.70;;;;;;5113205;28;20023;-54
2022/01/19 09:05:39;;;;;;;12.70;7.47;;;14.20;47.80;;;;;;5114684;28;20395;-54
2022/01/19 09:08:05;;;;;;;10.55;6.50;;;15.40;45.10;;;;;;5113494;28;20044;-53
2022/01/19 09:10:31;;;;;;;9.30;6.13;;;16.40;42.70;;;;;;5113862;28;20030;-57
2022/01/19 09:12:56;;;;;;;8.77;5.75;;;17.10;40.90;;;;;;5115435;28;20011;-54
2022/01/19 09:15:23;;;;;;;8.52;5.65;;;17.60;39.80;;;;;;5114436;28;20023;-60
2022/01/19 09:17:49;;;;;;;9.48;7.30;;;17.50;39.40;;;;;;5112566;28;20077;-53
2022/01/19 09:20:17;;;;;;;16.83;8.23;;;16.70;39.90;;;;;;5111441;28;20016;-54
2022/01/19 09:22:43;;;;;;;16.27;9.13;;;15.00;44.10;;;;;;5110888;28;20035;-57
2022/01/19 09:25:17;;;;;;;14.45;9.93;;;14.50;45.80;;;;;;5113394;28;20068;-55
2022/01/19 09:27:43;;;;;;;16.00;9.15;;;13.00;49.30;;;;;;5113132;28;20030;-56
2022/01/19 09:30:16;;;;;;;12.02;8.73;;;13.50;50.40;;;;;;5111425;28;20011;-53
2022/01/19 09:32:45;;;;;;;13.88;9.48;;;14.20;49.40;;;;;;5111869;28;20019;-51
2022/01/19 09:35:11;;;;;;;14.13;9.35;;;13.70;49.50;;;;;;5112366;28;20016;-50
2022/01/19 09:37:38;;;;;;;15.10;10.00;;;13.60;49.80;;;;;;5111077;28;20020;-52
2022/01/19 09:40:05;;;;;;;13.57;9.80;;;13.30;50.00;;;;;;5112266;28;20028;-51
2022/01/19 09:42:32;;;;;;;15.00;9.30;;;13.30;48.90;;;;;;5112027;28;20012;-51
2022/01/19 09:44:57;;;;;;;12.25;9.23;;;13.10;50.00;;;;;;5111995;28;20034;-52
2022/01/19 09:47:23;;;;;;;14.93;9.30;;;13.50;50.50;;;;;;5111415;28;20057;-54
2022/01/19 09:49:49;;;;;;;24.27;10.35;;;13.60;49.80;;;;;;5093863;28;20337;-54
2022/01/19 09:52:17;;;;;;;17.40;9.35;;;14.10;48.40;;;;;;5112096;28;20024;-49
2022/01/19 09:54:43;;;;;;;15.40;8.68;;;14.30;48.30;;;;;;5110882;28;20043;-51
2022/01/19 09:57:19;;;;;;;13.43;8.55;;;14.50;47.30;;;;;;5112186;28;20050;-54
2022/01/19 09:59:47;;;;;;;13.30;9.02;;;14.90;46.40;;;;;;5111607;28;20056;-52
2022/01/19 10:02:18;;;;;;;14.48;9.02;;;14.60;47.40;;;;;;5112284;28;20514;-54
2022/01/19 10:04:46;;;;;;;11.60;8.60;;;14.70;47.50;;;;;;5111706;28;20027;-48
2022/01/19 10:07:20;;;;;;;19.52;9.18;;;13.80;49.50;;;;;;5112711;28;20020;-52
2022/01/19 10:10:09;;;;;;;11.70;8.07;;;14.10;49.50;;;;;;5113457;28;20011;-50
2022/01/19 10:18:10;;;;;;;16.80;6.67;;;17.10;41.80;;;;;;5113763;28;20084;-53
2022/01/19 10:20:37;;;;;;;11.07;5.90;;;17.40;40.90;;;;;;5113379;28;20023;-53
2022/01/19 10:23:06;;;;;;;9.75;5.65;;;17.70;40.10;;;;;;5112541;28;20377;-51
2022/01/19 10:26:26;;;;;;;11.80;6.32;;;17.80;39.40;;;;;;5111064;28;20011;-52
2022/01/19 10:29:05;;;;;;;11.63;5.97;;;17.60;39.10;;;;;;5112515;28;20020;-54
2022/01/19 10:31:32;;;;;;;8.55;5.25;;;17.60;39.70;;;;;;5112560;28;20023;-51
2022/01/19 10:34:18;;;;;;;12.52;5.57;;;17.80;39.50;;;;;;5110450;28;20094;-53
2022/01/19 10:36:55;;;;;;;7.97;5.03;;;18.10;39.00;;;;;;5111724;28;20466;-52
2022/01/19 10:39:24;;;;;;;11.55;5.25;;;18.10;38.60;;;;;;5112416;28;20019;-52
2022/01/19 10:42:04;;;;;;;11.25;5.10;;;18.40;38.30;;;;;;5110563;28;20143;-52
2022/01/19 10:44:41;;;;;;;10.75;5.68;;;18.60;37.80;;;;;;5112570;28;20056;-52
2022/01/19 10:47:07;;;;;;;9.43;4.93;;;18.80;37.30;;;;;;5111484;28;20043;-52
2022/01/19 10:49:50;;;;;;;9.75;5.68;;;18.90;37.10;;;;;;5116455;28;20099;-54
2022/01/19 10:52:45;;;;;;;10.98;5.80;;;18.80;37.30;;;;;;5115678;28;20020;-51
2022/01/19 10:55:24;;;;;;;7.57;4.85;;;18.60;37.40;;;;;;5106545;28;20515;-53
2022/01/19 10:57:50;;;;;;;8.57;4.70;;;18.70;37.30;;;;;;5113727;28;20030;-53
2022/01/19 11:00:28;;;;;;;9.25;5.10;;;18.90;37.00;;;;;;5115755;28;20426;-50
2022/01/19 11:02:58;;;;;;;9.40;5.45;;;19.20;36.70;;;;;;5117194;28;20016;-55
2022/01/19 11:05:50;;;;;;;7.87;4.80;;;19.40;36.30;;;;;;5115707;28;20132;-54
2022/01/19 11:08:18;;;;;;;10.20;4.82;;;19.60;36.00;;;;;;5117520;28;20632;-56
2022/01/19 11:10:48;;;;;;;8.75;5.45;;;19.70;35.70;;;;;;5117726;28;20023;-51
2022/01/19 11:13:17;;;;;;;8.25;4.40;;;19.50;35.90;;;;;;5118308;28;20011;-54
2022/01/19 11:15:43;;;;;;;8.65;5.35;;;19.40;36.20;;;;;;5119012;27;20007;-53
2022/01/19 11:18:09;;;;;;;8.90;5.05;;;19.40;36.20;;;;;;5119123;28;20016;-52
2022/01/19 11:20:42;;;;;;;6.85;4.90;;;19.70;35.90;;;;;;5118604;28;20019;-52
2022/01/19 11:23:37;;;;;;;7.50;5.00;;;19.70;35.60;;;;;;5119545;28;20015;-52
2022/01/19 11:26:05;;;;;;;9.40;5.57;;;19.70;35.80;;;;;;5112020;28;20052;-54
2022/01/19 11:28:36;;;;;;;7.32;5.07;;;19.60;35.70;;;;;;5120631;28;20448;-54
2022/01/19 11:31:10;;;;;;;9.35;5.18;;;19.60;35.80;;;;;;5120614;28;20011;-53
2022/01/19 11:33:44;;;;;;;10.07;5.55;;;19.60;36.00;;;;;;5120952;28;20087;-53
2022/01/19 11:36:23;;;;;;;8.15;5.55;;;19.60;35.90;;;;;;5120245;28;20060;-54
2022/01/19 11:38:50;;;;;;;7.32;4.68;;;19.60;35.80;;;;;;5120314;27;20011;-54
2022/01/19 11:41:16;;;;;;;9.80;5.00;;;19.40;36.10;;;;;;5119357;28;20011;-53
2022/01/19 11:43:57;;;;;;;6.93;5.75;;;19.40;36.20;;;;;;5118885;28;20373;-54
2022/01/19 11:46:31;;;;;;;10.70;5.70;;;19.30;36.40;;;;;;5118838;28;20024;-52
2022/01/19 11:48:59;;;;;;;6.70;4.70;;;19.30;36.40;;;;;;5118928;28;20082;-52
2022/01/19 11:51:29;;;;;;;8.27;5.32;;;19.40;36.30;;;;;;5118702;28;20609;-57
2022/01/19 11:54:14;;;;;;;10.65;6.03;;;19.30;36.40;;;;;;5118829;28;20012;-57
2022/01/19 11:56:58;;;;;;;7.93;5.35;;;18.70;37.10;;;;;;5118509;28;20093;-57
2022/01/19 11:59:30;;;;;;;9.43;6.15;;;18.70;37.40;;;;;;5117519;28;20046;-57
2022/01/19 12:02:20;;;;;;;9.15;5.95;;;18.60;37.40;;;;;;5118042;28;20012;-56
2022/01/19 12:04:54;;;;;;;11.50;6.22;;;18.40;38.20;;;;;;5118021;28;20146;-57
2022/01/19 12:07:48;;;;;;;10.65;6.03;;;18.60;37.80;;;;;;5117497;28;20031;-57
2022/01/19 12:10:45;;;;;;;10.18;6.07;;;18.60;37.70;;;;;;5117179;27;20023;-56
2022/01/19 12:16:17;;;;;;;14.85;8.48;;;18.40;38.00;;;;;;5117141;28;20023;-56
2022/01/19 12:18:46;;;;;;;10.57;7.03;;;17.90;38.60;;;;;;5115964;28;20042;-54
2022/01/19 12:21:14;;;;;;;13.57;8.02;;;17.80;39.50;;;;;;5116733;28;20080;-55
2022/01/19 12:23:41;;;;;;;11.65;7.22;;;17.50;40.00;;;;;;5117079;28;20011;-54
2022/01/19 12:26:09;;;;;;;12.40;7.93;;;17.50;40.10;;;;;;5116534;28;20091;-55
2022/01/19 12:28:53;;;;;;;12.75;7.22;;;17.60;39.80;;;;;;5116327;28;20016;-58
2022/01/19 12:31:25;;;;;;;11.88;7.47;;;17.90;39.30;;;;;;5116939;28;20008;-56
2022/01/19 12:34:07;;;;;;;18.67;7.53;;;17.90;39.60;;;;;;5116862;28;20015;-55
2022/01/19 12:36:51;;;;;;;12.63;8.13;;;17.60;39.50;;;;;;5116788;28;20080;-57
2022/01/19 12:39:26;;;;;;;18.75;7.70;;;17.60;39.90;;;;;;5116683;28;20028;-56
2022/01/19 12:42:14;;;;;;;12.43;8.20;;;17.80;39.60;;;;;;5116563;28;20353;-54
2022/01/19 12:44:50;;;;;;;10.88;7.45;;;17.80;39.70;;;;;;5117227;28;20030;-55
2022/01/19 12:47:25;;;;;;;13.88;7.93;;;17.50;40.30;;;;;;5116952;28;20079;-54
2022/01/19 12:49:51;;;;;;;15.85;8.57;;;17.60;39.90;;;;;;5117633;28;20016;-56
2022/01/19 12:52:18;;;;;;;11.27;8.35;;;17.60;40.00;;;;;;5117501;28;20024;-52
2022/01/19 12:54:44;;;;;;;13.27;8.75;;;17.40;40.40;;;;;;5117713;28;20039;-52
2022/01/19 12:57:15;;;;;;;17.35;8.27;;;17.60;40.10;;;;;;5116765;28;20105;-53
2022/01/19 12:59:41;;;;;;;11.13;7.68;;;17.60;40.10;;;;;;5118491;28;20030;-54
2022/01/19 13:02:12;;;;;;;11.80;7.60;;;17.60;40.40;;;;;;5117465;28;20394;-55
2022/01/19 13:04:38;;;;;;;11.75;7.85;;;17.40;40.60;;;;;;5118704;28;20020;-54
2022/01/19 13:07:26;;;;;;;12.65;7.60;;;17.50;40.90;;;;;;5117411;28;20106;-54
2022/01/19 13:13:07;;;;;;;11.90;8.18;;;17.50;40.30;;;;;;5116468;28;20084;-57
2022/01/19 13:15:48;;;;;;;13.05;7.93;;;17.60;40.30;;;;;;5115813;28;20398;-57
2022/01/19 13:18:38;;;;;;;17.60;8.88;;;17.50;40.40;;;;;;5116387;28;20042;-57
2022/01/19 13:21:10;;;;;;;14.32;8.57;;;17.20;41.00;;;;;;5117169;28;20007;-57
2022/01/19 13:23:57;;;;;;;12.48;8.00;;;17.10;41.20;;;;;;5117281;28;20489;-57
2022/01/19 13:26:23;;;;;;;18.80;9.50;;;17.10;41.30;;;;;;5116860;28;20048;-57
2022/01/19 13:28:50;;;;;;;12.45;8.45;;;16.80;41.80;;;;;;5116277;28;20435;-56
2022/01/19 13:31:20;;;;;;;16.48;10.13;;;16.80;42.20;;;;;;5116155;28;20023;-60
2022/01/19 13:33:59;;;;;;;18.77;12.18;;;16.50;42.50;;;;;;5115289;28;20480;-57
2022/01/19 13:36:35;;;;;;;14.32;9.32;;;16.40;42.70;;;;;;5114325;28;20427;-57
2022/01/19 13:39:03;;;;;;;15.18;11.02;;;16.60;42.70;;;;;;5114249;28;20020;-60
2022/01/19 13:41:29;;;;;;;16.02;9.82;;;16.40;42.90;;;;;;5112725;28;20149;-59
2022/01/19 13:44:08;;;;;;;15.35;10.10;;;16.40;43.10;;;;;;5114228;28;20055;-57
2022/01/19 13:46:38;;;;;;;15.57;9.50;;;16.60;42.90;;;;;;5114459;28;20041;-58
2022/01/19 13:49:04;;;;;;;19.65;10.15;;;16.60;43.00;;;;;;5114122;28;20007;-59
2022/01/19 13:51:30;;;;;;;16.42;9.63;;;16.60;43.00;;;;;;5114796;28;20012;-59
2022/01/19 13:53:59;;;;;;;17.88;10.45;;;16.60;42.90;;;;;;5114115;28;20414;-59
2022/01/19 13:56:26;;;;;;;16.20;10.68;;;16.60;42.80;;;;;;5114349;28;20035;-59
2022/01/19 13:59:02;;;;;;;16.33;10.10;;;16.50;43.20;;;;;;5114117;28;20092;-59
2022/01/19 14:01:36;;;;;;;17.15;10.48;;;16.60;43.10;;;;;;5114466;28;20091;-60
2022/01/19 14:04:06;;;;;;;15.82;10.05;;;16.50;43.10;;;;;;5114445;28;20016;-57
2022/01/19 14:06:43;;;;;;;20.20;10.70;;;16.60;43.30;;;;;;5115093;28;20032;-58
2022/01/19 14:09:15;;;;;;;14.57;10.10;;;16.60;43.10;;;;;;5072800;28;1246042;-59
2022/01/19 14:11:43;;;;;;;14.68;10.57;;;16.60;43.20;;;;;;5117076;28;20022;-58
2022/01/19 14:14:21;;;;;;;18.92;11.23;;;16.50;43.50;;;;;;5117779;28;20015;-58
2022/01/19 14:16:48;;;;;;;16.70;10.57;;;16.20;43.60;;;;;;5116349;28;20030;-57
2022/01/19 14:19:15;;;;;;;15.07;9.88;;;16.10;44.60;;;;;;5116847;28;20073;-58
2022/01/19 14:22:06;;;;;;;15.88;10.82;;;15.70;45.40;;;;;;5116394;28;20016;-58
2022/01/19 14:24:41;;;;;;;16.80;11.00;;;15.70;45.60;;;;;;5120413;28;20016;-57
2022/01/19 14:27:34;;;;;;;16.92;10.82;;;15.90;45.10;;;;;;5120216;28;20028;-59
2022/01/19 14:30:02;;;;;;;19.08;10.98;;;16.00;44.70;;;;;;5113186;28;20024;-59
2022/01/19 14:32:40;;;;;;;17.08;11.50;;;15.90;45.20;;;;;;5120460;28;20103;-60
2022/01/19 14:35:19;;;;;;;18.05;11.25;;;15.90;45.10;;;;;;5120544;28;20016;-58